• Join FlightAware (Why Join?)
  • Login
  • US Flag 
10:04AM EDT


 

Airport Tracker/Info


-or-


 

Live Flight TrackerFlight Track Log ✈ DAL1981 ✈ 14-Jun-2013 ✈ KSMF - KMSP

Flight Track Log - Related Links

Times and Time Zones

All times are in EDT time to prevent confusion due to time zone crossing. See the DAL1981 flight status page for this flight to view local times or setup timezone preferences in your user account.

Time Position Orientation Groundspeed Altitude Reporting Facility
EDT Latitude Longitude Course Direction KTS MPH feet Rate Location/Type
03:55PM 38.7500 -121.5667 76° East 176 203 1,800  Level Northern Cal TRACON
03:56PM 38.7333 -121.5000 108° East 271 312 3,200 2,280 Climbing Northern Cal TRACON
03:57PM 38.7000 -121.4333 123° Southeast 271 312 6,200 2,820 Climbing Northern Cal TRACON
03:58PM 38.5391 -121.0716 76° East  Level FlightAware Approximate
03:58PM 38.7000 -121.3333 90° East 359 413 8,900  Level Northern Cal TRACON
03:59PM 38.5689 -120.9040 78° East  Level FlightAware Approximate
03:59PM 38.7000 -121.2167 90° East 301 346 10,900  Level Northern Cal TRACON
04:00PM 38.5968 -120.7358 78° East  Level FlightAware Approximate
04:01PM 38.6295 -120.5690 76° East  Level FlightAware Approximate
04:01PM 38.7058 -121.0656 87° East 375 432 12,000  Level Oakland Center
04:02PM 38.7089 -120.9203 88° East 402 463 14,100 1,800 Climbing Oakland Center
04:03PM 38.7097 -120.7719 90° East 410 472 15,800 1,740 Climbing Oakland Center
04:04PM 38.7131 -120.6156 88° East 429 494 17,700 1,740 Climbing Oakland Center
04:05PM 38.7150 -120.4558 89° East 443 510 19,400 1,560 Climbing Oakland Center
04:06PM 38.7172 -120.2919 89° East 455 524 20,900 1,320 Climbing Oakland Center
04:07PM 38.7331 -120.1256 83° East 467 537 22,200 1,260 Climbing Oakland Center
04:08PM 38.7747 -119.9264 75° East 479 551 23,600 1,020 Climbing Oakland Center
04:09PM 38.8036 -119.7761 76° East 490 564 24,400 780 Climbing Oakland Center
04:10PM 38.8953 -119.6425 49° Northeast 509 586 25,300 960 Climbing Oakland Center
04:11PM 39.0394 -119.5197 33° Northeast 515 593 26,400 1,200 Climbing Oakland Center
04:12PM 39.1592 -119.4181 33° Northeast 514 592 27,800 1,020 Climbing Oakland Center
04:13PM 39.2797 -119.3156 33° Northeast 516 594 28,600 900 Climbing Oakland Center
04:14PM 39.4003 -119.2108 34° Northeast 518 596 29,700 960 Climbing Oakland Center
04:15PM 39.5214 -119.1072 33° Northeast 516 594 30,600 960 Climbing Oakland Center
04:16PM 39.6431 -119.0017 34° Northeast 518 596 31,700 900 Climbing Oakland Center
04:17PM 39.7639 -118.8964 34° Northeast 516 594 32,500 780 Climbing Oakland Center
04:18PM 39.8833 -118.7911 34° Northeast 514 592 33,300 840 Climbing Oakland Center
04:19PM 40.0031 -118.6853 34° Northeast 515 593 34,300 720 Climbing Oakland Center
04:20PM 40.1003 -118.5519 46° Northeast 509 586 34,800 300 Climbing Oakland Center
04:21PM 40.1650 -118.3814 64° Northeast 520 598 35,000 60 Climbing Oakland Center
04:22PM 40.2317 -118.2133 63° Northeast 519 597 35,000  Level Oakland Center
04:23PM 40.2989 -118.0439 62° Northeast 519 597 35,000  Level Salt Lake Center
04:24PM 40.3714 -117.8558 63° Northeast 517 595 35,000  Level Salt Lake Center
04:25PM 40.4356 -117.6950 62° Northeast 518 596 35,000  Level Salt Lake Center
04:26PM 40.5072 -117.5042 64° Northeast 519 597 35,000  Level Salt Lake Center
04:27PM 40.5700 -117.3400 63° Northeast 521 600 35,000  Level Salt Lake Center
04:28PM 40.6442 -117.1481 63° Northeast 522 601 35,000  Level Salt Lake Center
04:29PM 40.7069 -116.9822 63° Northeast 522 601 35,000  Level Salt Lake Center
04:30PM 40.7681 -116.8164 64° Northeast 520 598 35,000  Level Salt Lake Center
04:31PM 40.8403 -116.6236 64° Northeast 521 600 35,000  Level Salt Lake Center
04:32PM 40.9017 -116.4578 64° Northeast 522 601 35,000  Level Salt Lake Center
04:33PM 40.9733 -116.2656 64° Northeast 521 600 35,000  Level Salt Lake Center
04:35PM 41.0350 -116.0986 64° Northeast 524 603 35,000  Level Salt Lake Center
04:36PM 41.1042 -115.9031 65° Northeast 524 603 35,000  Level Salt Lake Center
04:37PM 41.1656 -115.7364 64° Northeast 524 603 35,000  Level Salt Lake Center
04:38PM 41.2250 -115.5681 65° Northeast 525 604 35,000  Level Salt Lake Center
04:39PM 41.2944 -115.3714 65° Northeast 526 605 35,000  Level Salt Lake Center
04:40PM 41.3553 -115.2044 64° Northeast 523 602 35,000  Level Salt Lake Center
04:41PM 41.4242 -115.0069 65° Northeast 526 605 35,000  Level Salt Lake Center
04:42PM 41.4836 -114.8361 65° Northeast 530 610 35,000  Level Salt Lake Center
04:43PM 41.5514 -114.6397 65° Northeast 524 603 35,000  Level Salt Lake Center
04:44PM 41.6133 -114.4633 65° Northeast 526 605 35,000  Level Salt Lake Center
04:45PM 41.6733 -114.2861 66° East 524 603 35,000  Level Salt Lake Center
04:46PM 41.7344 -114.1089 65° Northeast 525 604 35,000  Level Salt Lake Center
04:47PM 41.7953 -113.9292 66° East 528 608 35,000  Level Salt Lake Center
04:48PM 41.8561 -113.7492 66° East 529 609 35,000  Level Salt Lake Center
04:49PM 41.9169 -113.5692 66° East 529 609 35,000  Level Salt Lake Center
04:50PM 41.9889 -113.3508 66° East 532 612 35,000  Level Salt Lake Center
04:51PM 42.0481 -113.1703 66° East 528 608 35,000  Level Salt Lake Center
04:52PM 42.1086 -112.9886 66° East 530 610 35,000 -60 Level Salt Lake Center
04:53PM 42.1678 -112.8069 66° East 529 609 34,900  Descending Salt Lake Center
04:54PM 42.2269 -112.6239 66° East 532 612 35,000  Climbing Salt Lake Center
04:55PM 42.2858 -112.4403 67° East 533 613 35,000  Level Salt Lake Center
04:56PM 42.3447 -112.2550 67° East 535 616 35,000  Level Salt Lake Center
04:57PM 42.4153 -112.0339 67° East 535 616 35,000  Level Salt Lake Center
04:58PM 42.4733 -111.8489 67° East 534 615 35,000  Level Salt Lake Center
04:59PM 42.5303 -111.6639 67° East 533 613 35,000  Level Salt Lake Center
05:00PM 42.5886 -111.4781 67° East 534 615 35,000  Level Salt Lake Center
05:01PM 42.6458 -111.2914 67° East 537 618 35,000 -60 Level Salt Lake Center
05:02PM 42.7128 -111.0753 67° East 535 616 34,900  Descending Salt Lake Center
05:03PM 42.7714 -110.8819 68° East 540 621 35,000  Climbing Salt Lake Center
05:04PM 42.8197 -110.6989 70° East 539 620 35,000  Level Salt Lake Center
05:05PM 42.8508 -110.5150 77° East 526 605 35,000  Level Salt Lake Center
05:06PM 42.8894 -110.2969 76° East 530 610 35,000  Level Salt Lake Center
05:08PM 42.9214 -110.1106 77° East 529 609 35,000  Level Salt Lake Center
05:09PM 42.9589 -109.8906 77° East 533 613 35,000  Level Salt Lake Center
05:10PM 42.9917 -109.7033 76° East 534 615 35,000 -60 Level Salt Lake Center
05:11PM 43.0286 -109.4806 77° East 535 616 34,900  Descending Salt Lake Center
05:12PM 43.0606 -109.2894 77° East 537 618 35,000 60 Climbing Salt Lake Center
05:13PM 43.0969 -109.0689 77° East 536 617 35,100 -60 Climbing Salt Lake Center
05:14PM 43.1258 -108.8883 78° East 520 598 34,900  Descending Salt Lake Center
05:15PM 43.1614 -108.6722 77° East 521 600 35,100  Climbing Salt Lake Center
05:16PM 43.1914 -108.4856 78° East 523 602 34,900  Descending Salt Lake Center
05:17PM 43.2197 -108.3003 78° East 521 600 35,100  Climbing Salt Lake Center
05:18PM 43.2533 -108.0833 78° East 520 598 34,900 -60 Descending Salt Lake Center
05:19PM 43.2817 -107.8981 78° East 520 598 35,000  Climbing Salt Lake Center
05:20PM 43.3106 -107.6897 79° East 523 602 35,000  Level Salt Lake Center
05:21PM 43.3428 -107.4742 78° East 519 597 35,000  Level Salt Lake Center
05:22PM 43.3700 -107.2881 79° East 521 600 35,000  Level Salt Lake Center
05:23PM 43.3958 -107.1022 79° East 520 598 35,100  Climbing Salt Lake Center
05:23PM 43.4122 -107.0033 77° East 516 594 35,000 -180 Descending Denver Center
05:25PM 43.4428 -106.7906 79° East 509 586 34,900  Descending Denver Center
05:26PM 43.4681 -106.6069 79° East 510 587 35,000  Climbing Denver Center
05:27PM 43.4986 -106.3917 79° East 513 590 35,000  Level Denver Center
05:28PM 43.5239 -106.2047 79° East 517 595 35,000  Level Denver Center
05:29PM 43.5525 -105.9883 80° East 514 592 35,100  Climbing Denver Center
05:30PM 43.5778 -105.8031 79° East 513 590 35,000 -60 Descending Denver Center
05:31PM 43.6047 -105.5858 80° East 514 592 35,000  Level Denver Center
05:32PM 43.6314 -105.3981 79° East 516 594 35,000  Level Denver Center
05:33PM 43.6544 -105.2108 80° East 516 594 35,000  Level Denver Center
05:34PM 43.6806 -104.9956 80° East 511 588 35,000  Level Denver Center
05:35PM 43.7044 -104.8092 80° East 513 590 35,000  Level Denver Center
05:36PM 43.7306 -104.5903 81° East 514 592 35,000  Level Denver Center
05:37PM 43.7522 -104.4042 81° East 513 590 35,100  Climbing Denver Center
05:38PM 43.7769 -104.1914 81° East 502 578 35,000 -60 Descending Denver Center
05:39PM 43.7992 -104.0094 80° East 498 573 35,000 -60 Level Denver Center
05:40PM 43.8233 -103.7944 81° East 504 580 34,900 -60 Descending Denver Center
05:41PM 43.8433 -103.6083 81° East 509 586 34,900  Level Denver Center
05:42PM 43.8689 -103.3903 81° East 514 592 35,000 60 Climbing Denver Center
05:43PM 43.8900 -103.1992 81° East 520 598 35,100  Climbing Denver Center
05:44PM 43.9111 -103.0097 81° East 520 598 35,100 -60 Level Denver Center
05:45PM 43.9319 -102.8033 82° East 520 598 35,000 -60 Descending Denver Center
05:46PM 43.9511 -102.6083 82° East 516 594 35,000  Level Denver Center
05:47PM 43.9731 -102.3736 83° East 513 590 35,000  Level Denver Center
05:48PM 43.9919 -102.1772 82° East 514 592 35,000  Level Denver Center
05:49PM 44.0078 -101.9772 84° East 517 595 35,000  Level Denver Center
05:50PM 44.0267 -101.7786 82° East 520 598 35,000  Level Denver Center
05:51PM 44.0514 -101.5858 80° East 512 589 35,100  Climbing Denver Center
05:52PM 44.0681 -101.3894 83° East 513 590 35,000 -60 Descending Denver Center
05:53PM 44.0881 -101.1517 83° East 515 593 35,000  Level Minneapolis Center
05:54PM 44.1056 -100.9553 83° East 515 593 35,000  Level Minneapolis Center
05:56PM 44.1225 -100.7633 83° East 509 586 35,000  Level Minneapolis Center
05:57PM 44.1397 -100.5719 83° East 504 580 35,000  Level Minneapolis Center
05:58PM 44.1550 -100.3789 84° East 503 579 35,000  Level Minneapolis Center
05:59PM 44.1714 -100.1864 83° East 505 581 35,000  Level Minneapolis Center
06:00PM 44.1900 -99.9544 84° East 506 582 35,000  Level Minneapolis Center
06:01PM 44.2056 -99.7603 84° East 508 585 35,000  Level Minneapolis Center
06:02PM 44.2208 -99.5650 84° East 509 586 35,000  Level Minneapolis Center
06:03PM 44.2364 -99.3700 84° East 510 587 35,000  Level Minneapolis Center
06:04PM 44.2497 -99.1744 84° East 510 587 35,000  Level Minneapolis Center
06:05PM 44.2669 -98.9403 84° East 509 586 35,000  Level Minneapolis Center
06:06PM 44.2811 -98.7447 84° East 509 586 35,000  Level Minneapolis Center
06:07PM 44.2928 -98.5461 85° East 514 592 35,000  Level Minneapolis Center
06:08PM 44.3067 -98.3494 84° East 513 590 35,000  Level Minneapolis Center
06:09PM 44.3194 -98.1269 85° East 512 589 35,000 -120 Level Minneapolis Center
06:10PM 44.3314 -97.9292 85° East 513 590 34,800 -540 Descending Minneapolis Center
06:11PM 44.3439 -97.7311 85° East 513 590 33,900 -960 Descending Minneapolis Center
06:12PM 44.3544 -97.5333 86° East 512 589 32,900 -1,020 Descending Minneapolis Center
06:13PM 44.3658 -97.3350 85° East 513 590 31,900 -960 Descending Minneapolis Center
06:14PM 44.3769 -97.1383 85° East 510 587 31,000 -1,020 Descending Minneapolis Center
06:15PM 44.3894 -96.9028 86° East 507 583 29,800 -1,020 Descending Minneapolis Center
06:16PM 44.4000 -96.7047 86° East 509 586 29,000 -840 Descending Minneapolis Center
06:17PM 44.4089 -96.5169 86° East 492 566 28,100 -960 Descending Minneapolis Center
06:18PM 44.4175 -96.3333 86° East 470 541 27,100 -960 Descending Minneapolis Center
06:19PM 44.4269 -96.1497 86° East 467 537 26,200 -960 Descending Minneapolis Center
06:20PM 44.4353 -95.9672 86° East 467 537 25,200 -1,020 Descending Minneapolis Center
06:21PM 44.4422 -95.7903 87° East 456 525 24,200 -600 Descending Minneapolis Center
06:22PM 44.4494 -95.6178 87° East 445 512 24,000 -120 Descending Minneapolis Center
06:23PM 44.4569 -95.4108 87° East 445 512 24,000  Level Minneapolis Center
06:24PM 44.4639 -95.2367 87° East 447 514 24,000 -540 Level Minneapolis Center
06:26PM 44.4814 -95.0658 82° East 444 511 22,900 -1,560 Descending Minneapolis Center
06:27PM 44.5200 -94.9081 71° East 431 496 20,800 -2,040 Descending Minneapolis Center
06:28PM 44.5564 -94.7550 72° East 420 483 18,800 -2,280 Descending Minneapolis Center
06:29PM 44.5958 -94.5833 72° East 405 466 16,200 -2,280 Descending Minneapolis Center
06:30PM 44.6294 -94.4397 72° East 390 449 14,200 -2,040 Descending Minneapolis Center
06:31PM 44.6611 -94.2986 72° East 378 435 12,100 -1,560 Descending Minneapolis Center
06:32PM 44.6922 -94.1644 72° East 359 413 11,000 -600 Descending Minneapolis Center
06:33PM 44.7172 -94.0481 73° East 317 365 10,900 -720 Descending Minneapolis Center
06:34PM 44.7614 -93.9442 59° Northeast 311 358 9,600 -1,620 Descending Minneapolis Center
06:35PM 44.8239 -93.8247 54° Northeast 317 365 7,600 -1,260 Descending Minneapolis Center
06:36PM 44.8753 -93.7286 53° Northeast 307 353 7,000 -300 Descending Minneapolis Center
06:37PM 44.9194 -93.6464 53° Northeast 266 306 7,000 -780 Level Minneapolis Center
06:38PM 44.9600 -93.5619 56° Northeast 260 299 5,500 -1,020 Descending Minneapolis Center
06:39PM 44.9542 -93.4789 96° East 208 239 5,000 -540 Descending Minneapolis Center